createdAt,value
2023-08-24T00:01:59.106Z,97492.28
2023-08-24T00:04:25.991Z,97491.03
2023-08-24T00:06:53.115Z,97487.53
2023-08-24T00:09:20.225Z,97483.38
2023-08-24T00:11:47.169Z,97485.25
2023-08-24T00:14:14.024Z,97486.28
2023-08-24T00:16:42.113Z,97488.97
2023-08-24T00:19:09.711Z,97488.97
2023-08-24T00:21:36.549Z,97486.69
2023-08-24T00:24:03.425Z,97488.97
2023-08-24T00:26:30.432Z,97489.81
2023-08-24T00:28:57.335Z,97485.47
2023-08-24T00:31:24.243Z,97486.09
2023-08-24T00:33:51.970Z,97482.97
2023-08-24T00:36:24.656Z,97483.19
2023-08-24T00:38:53.050Z,97481.13
2023-08-24T00:41:20.394Z,97483.59
2023-08-24T00:43:47.907Z,97476.97
2023-08-24T00:46:14.797Z,97482.59
2023-08-24T00:48:41.961Z,97478.03
2023-08-24T00:51:09.186Z,97477.41
2023-08-24T00:53:37.556Z,97475.34
2023-08-24T00:56:04.846Z,97472.44
2023-08-24T00:58:33.128Z,97467.28
2023-08-24T01:01:00.381Z,97475.53
2023-08-24T01:03:27.336Z,97468.91
2023-08-24T01:05:54.257Z,97466.84
2023-08-24T01:08:23.378Z,97473.88
2023-08-24T01:11:00.633Z,97471.00
2023-08-24T01:13:44.153Z,97467.28
2023-08-24T01:16:17.496Z,97466.66
2023-08-24T01:18:45.647Z,97476.78
2023-08-24T01:21:14.274Z,97466.84
2023-08-24T01:24:20.231Z,97466.44
2023-08-24T01:26:50.540Z,97455.25
2023-08-24T01:29:17.671Z,97465.59
2023-08-24T01:31:44.648Z,97461.47
2023-08-24T01:34:11.501Z,97462.50
2023-08-24T01:36:38.396Z,97462.28
2023-08-24T01:39:35.080Z,97461.06
2023-08-24T01:42:05.965Z,97464.38
2023-08-24T01:44:38.790Z,97461.69
2023-08-24T01:47:07.879Z,97460.22
2023-08-24T01:49:36.020Z,97463.53
2023-08-24T01:52:05.659Z,97464.16
2023-08-24T01:54:32.933Z,97454.44
2023-08-24T01:56:59.873Z,97456.72
2023-08-24T01:59:27.188Z,97460.00
2023-08-24T02:01:54.035Z,97452.16
2023-08-24T02:04:20.894Z,97458.97
2023-08-24T02:06:47.753Z,97445.91
2023-08-24T02:09:14.597Z,97442.78
2023-08-24T02:11:41.542Z,97446.34
2023-08-24T02:14:08.596Z,97444.50
2023-08-24T02:16:37.319Z,97442.84
2023-08-24T02:19:04.226Z,97445.31
2023-08-24T02:21:31.137Z,97435.81
2023-08-24T02:23:57.964Z,97442.22
2023-08-24T02:26:24.780Z,97440.34
2023-08-24T02:28:51.579Z,97443.25
2023-08-24T02:31:18.421Z,97440.16
2023-08-24T02:33:45.286Z,97440.34
2023-08-24T02:36:12.218Z,97431.22
2023-08-24T02:38:39.010Z,97425.84
2023-08-24T02:41:07.293Z,97427.94
2023-08-24T02:43:37.002Z,97429.19
2023-08-24T02:46:05.934Z,97423.78
2023-08-24T02:48:33.707Z,97425.41
2023-08-24T02:51:02.557Z,97432.66
2023-08-24T02:53:29.571Z,97426.66
2023-08-24T02:55:57.166Z,97419.59
2023-08-24T02:58:24.037Z,97423.56
2023-08-24T03:00:51.030Z,97433.06
2023-08-24T03:03:17.928Z,97415.06
2023-08-24T03:05:58.193Z,97424.81
2023-08-24T03:08:25.276Z,97422.13
2023-08-24T03:10:52.177Z,97425.88
2023-08-24T03:13:19.042Z,97427.53
2023-08-24T03:15:45.958Z,97433.53
2023-08-24T03:18:14.317Z,97433.31
2023-08-24T03:20:41.987Z,97428.16
2023-08-24T03:23:09.374Z,97440.09
2023-08-24T03:25:41.221Z,97441.34
2023-08-24T03:28:09.344Z,97440.75
2023-08-24T03:30:41.086Z,97439.53
2023-08-24T03:33:07.882Z,97444.22
2023-08-24T03:35:35.360Z,97437.94
2023-08-24T03:38:02.518Z,97437.53
2023-08-24T03:40:29.322Z,97433.19
2023-08-24T03:42:56.134Z,97433.75
2023-08-24T03:45:23.986Z,97432.19
2023-08-24T03:47:51.675Z,97435.75
2023-08-24T03:50:18.915Z,97443.81
2023-08-24T03:52:45.707Z,97441.94
2023-08-24T03:55:12.785Z,97439.84
2023-08-24T03:57:39.602Z,97430.75
2023-08-24T04:00:11.716Z,97436.94
2023-08-24T04:02:42.755Z,97438.69
2023-08-24T04:05:09.765Z,97448.16
2023-08-24T04:07:41.290Z,97445.47
2023-08-24T04:10:09.117Z,97443.38
2023-08-24T04:12:36.616Z,97439.88
2023-08-24T04:15:04.078Z,97437.25
2023-08-24T04:17:30.954Z,97438.63
2023-08-24T04:19:57.838Z,97445.31
2023-08-24T04:22:24.908Z,97441.47
2023-08-24T04:24:51.746Z,97433.88
2023-08-24T04:27:18.734Z,97436.16
2023-08-24T04:29:45.568Z,97431.34
2023-08-24T04:32:12.359Z,97434.22
2023-08-24T04:34:39.172Z,97436.44
2023-08-24T04:37:08.641Z,97431.44
2023-08-24T04:39:36.384Z,97432.44
2023-08-24T04:42:04.020Z,97424.59
2023-08-24T04:44:30.844Z,97426.84
2023-08-24T04:46:57.639Z,97417.94
2023-08-24T04:49:24.542Z,97423.72
2023-08-24T04:51:51.409Z,97418.13
2023-08-24T04:54:18.765Z,97413.78
2023-08-24T04:56:45.569Z,97413.56
2023-08-24T04:59:12.391Z,97416.88
2023-08-24T05:01:39.446Z,97414.34
2023-08-24T05:04:06.342Z,97417.66
2023-08-24T05:06:33.324Z,97412.06
2023-08-24T05:09:00.183Z,97411.44
2023-08-24T05:11:30.391Z,97412.03
2023-08-24T05:13:57.459Z,97417.56
2023-08-24T05:16:25.264Z,97413.03
2023-08-24T05:18:52.207Z,97405.16
2023-08-24T05:21:19.025Z,97404.97
2023-08-24T05:23:46.128Z,97418.59
2023-08-24T05:26:13.002Z,97420.63
2023-08-24T05:28:39.808Z,97422.50
2023-08-24T05:31:06.717Z,97422.69
2023-08-24T05:33:34.711Z,97417.31
2023-08-24T05:36:01.596Z,97407.81
2023-08-24T05:38:28.494Z,97404.69
2023-08-24T05:40:55.489Z,97407.38
2023-08-24T05:43:22.903Z,97418.09
2023-08-24T05:45:50.231Z,97410.06
2023-08-24T05:48:17.695Z,97413.78
2023-08-24T05:50:48.245Z,97407.38
2023-08-24T05:53:15.889Z,97413.56
2023-08-24T05:55:42.744Z,97410.44
2023-08-24T05:58:09.756Z,97423.25
2023-08-24T06:00:36.798Z,97421.19
2023-08-24T06:03:04.834Z,97419.53
2023-08-24T06:05:32.797Z,97418.91
2023-08-24T06:08:00.340Z,97423.47
2023-08-24T06:10:28.436Z,97417.47
2023-08-24T06:12:55.451Z,97410.88
2023-08-24T06:15:25.693Z,97409.59
2023-08-24T06:17:53.205Z,97413.69
2023-08-24T06:20:21.097Z,97409.38
2023-08-24T06:22:47.883Z,97411.25
2023-08-24T06:25:14.780Z,97410.03
2023-08-24T06:27:41.729Z,97417.88
2023-08-24T06:30:09.007Z,97421.34
2023-08-24T06:32:35.888Z,97419.91
2023-08-24T06:35:02.885Z,97415.03
2023-08-24T06:37:29.704Z,97410.53
2023-08-24T06:39:56.514Z,97419.41
2023-08-24T06:42:28.282Z,97415.13
2023-08-24T06:44:55.413Z,97413.69
2023-08-24T06:47:22.153Z,97412.84
2023-08-24T06:49:49.259Z,97405.03
2023-08-24T06:52:16.125Z,97408.13
2023-08-24T06:54:43.030Z,97406.06
2023-08-24T06:57:09.897Z,97406.50
2023-08-24T06:59:36.708Z,97405.88
2023-08-24T07:02:06.243Z,97402.34
2023-08-24T07:04:35.535Z,97391.63
2023-08-24T07:07:06.240Z,97404.47
2023-08-24T07:09:36.200Z,97397.03
2023-08-24T07:12:12.542Z,97395.63
2023-08-24T07:14:41.531Z,97380.97
2023-08-24T07:17:16.102Z,97369.38
2023-08-24T07:19:45.472Z,97374.34
2023-08-24T07:22:14.582Z,97365.28
2023-08-24T07:24:46.322Z,97366.72
2023-08-24T07:27:19.053Z,97365.25
2023-08-24T07:29:51.156Z,97366.06
2023-08-24T07:32:22.290Z,97368.59
2023-08-24T07:34:51.567Z,97361.72
2023-08-24T07:37:29.224Z,97358.66
2023-08-24T07:39:57.613Z,97354.53
2023-08-24T07:42:25.184Z,97352.69
2023-08-24T07:44:52.536Z,97360.06
2023-08-24T07:47:19.591Z,97365.03
2023-08-24T07:49:46.362Z,97361.50
2023-08-24T07:52:14.033Z,97364.19
2023-08-24T07:54:41.303Z,97359.28
2023-08-24T07:57:09.245Z,97352.88
2023-08-24T07:59:36.144Z,97353.94
2023-08-24T08:02:05.059Z,97354.53
2023-08-24T08:04:33.833Z,97355.38
2023-08-24T08:07:03.171Z,97359.53
2023-08-24T08:09:37.762Z,97359.13
2023-08-24T08:12:09.405Z,97352.31
2023-08-24T08:14:36.427Z,97358.09
2023-08-24T08:17:03.270Z,97348.00
2023-08-24T08:19:30.071Z,97356.88
2023-08-24T08:21:56.840Z,97362.03
2023-08-24T08:24:25.915Z,97355.22
2023-08-24T08:26:53.980Z,97365.38
2023-08-24T08:29:20.993Z,97356.91
2023-08-24T08:31:47.827Z,97359.41
2023-08-24T08:34:18.874Z,97368.28
2023-08-24T08:36:56.513Z,97366.84
2023-08-24T08:39:25.425Z,97372.41
2023-08-24T08:41:53.793Z,97377.78
2023-08-24T08:44:25.280Z,97379.44
2023-08-24T08:46:54.390Z,97378.00
2023-08-24T08:49:26.254Z,97378.22
2023-08-24T08:51:55.299Z,97377.19
2023-08-24T08:54:23.301Z,97365.81
2023-08-24T08:56:56.834Z,97365.63
2023-08-24T08:59:31.668Z,97368.72
2023-08-24T09:02:02.978Z,97373.69
2023-08-24T09:04:41.309Z,97359.84
2023-08-24T09:07:12.024Z,97361.91
2023-08-24T09:09:47.152Z,97367.91
2023-08-24T09:12:20.686Z,97368.34
2023-08-24T09:14:55.509Z,97358.63
2023-08-24T09:17:26.520Z,97353.66
2023-08-24T09:20:00.026Z,97331.53
2023-08-24T09:22:28.843Z,97326.16
2023-08-24T09:24:56.646Z,97316.84
2023-08-24T09:27:23.462Z,97312.66
2023-08-24T09:29:54.161Z,97307.28
2023-08-24T09:32:25.186Z,97308.31
2023-08-24T09:34:52.553Z,97294.88
2023-08-24T09:37:19.924Z,97297.16
2023-08-24T09:39:47.367Z,97312.06
2023-08-24T09:42:14.820Z,97311.66
2023-08-24T09:44:48.129Z,97301.91
2023-08-24T09:47:15.031Z,97300.66
2023-08-24T09:49:41.843Z,97295.28
2023-08-24T09:52:09.774Z,97297.97
2023-08-24T09:54:39.310Z,97291.75
2023-08-24T09:57:09.127Z,97291.53
2023-08-24T09:59:36.556Z,97290.88
2023-08-24T10:02:04.290Z,97282.59
2023-08-24T10:04:34.973Z,97292.72
2023-08-24T10:07:13.124Z,97296.22
2023-08-24T10:09:45.424Z,97296.22
2023-08-24T10:12:15.581Z,97278.41
2023-08-24T10:15:01.724Z,97278.41
2023-08-24T10:17:29.341Z,97277.09
2023-08-24T10:19:59.430Z,97270.25
2023-08-24T10:22:26.316Z,97263.00
2023-08-24T10:24:56.135Z,97267.34
2023-08-24T10:27:28.964Z,97268.38
2023-08-24T10:29:55.764Z,97270.63
2023-08-24T10:32:23.843Z,97261.09
2023-08-24T10:34:51.540Z,97253.22
2023-08-24T10:37:23.702Z,97246.75
2023-08-24T10:39:50.586Z,97241.16
2023-08-24T10:42:17.371Z,97239.69
2023-08-24T10:44:48.863Z,97236.94
2023-08-24T10:47:24.447Z,97231.53
2023-08-24T10:49:57.540Z,97222.19
2023-08-24T10:52:33.561Z,97221.56
2023-08-24T10:55:03.949Z,97223.00
2023-08-24T10:57:46.581Z,97203.88
2023-08-24T11:00:16.682Z,97198.50
2023-08-24T11:02:50.209Z,97199.03
2023-08-24T11:05:30.033Z,97186.78
2023-08-24T11:08:06.674Z,97176.81
2023-08-24T11:10:47.895Z,97168.97
2023-08-24T11:13:18.664Z,97166.16
2023-08-24T11:15:55.803Z,97163.44
2023-08-24T11:18:28.036Z,97158.88
2023-08-24T11:21:03.416Z,97146.00
2023-08-24T11:23:30.689Z,97152.59
2023-08-24T11:26:00.677Z,97148.63
2023-08-24T11:28:29.150Z,97142.34
2023-08-24T11:30:57.404Z,97153.75
2023-08-24T11:33:31.006Z,97142.06
2023-08-24T11:35:58.682Z,97143.66
2023-08-24T11:38:26.121Z,97141.47
2023-08-24T11:40:53.520Z,97132.78
2023-08-24T11:43:30.216Z,97132.63
2023-08-24T11:45:57.326Z,97133.09
2023-08-24T11:48:30.801Z,97130.78
2023-08-24T11:50:59.193Z,97127.34
2023-08-24T11:53:27.066Z,97136.94
2023-08-24T11:56:05.142Z,97138.81
2023-08-24T11:58:33.697Z,97133.84
2023-08-24T12:01:01.596Z,97141.28
2023-08-24T12:03:28.712Z,97137.72
2023-08-24T12:06:00.110Z,97130.44
2023-08-24T12:08:27.005Z,97143.25
2023-08-24T12:10:53.820Z,97141.75
2023-08-24T12:13:20.669Z,97134.78
2023-08-24T12:15:48.687Z,97128.69
2023-08-24T12:18:16.469Z,97126.22
2023-08-24T12:20:43.946Z,97128.84
2023-08-24T12:23:12.240Z,97125.47
2023-08-24T12:25:39.920Z,97126.28
2023-08-24T12:28:17.600Z,97114.56
2023-08-24T12:30:48.638Z,97114.94
2023-08-24T12:33:32.759Z,97115.53
2023-08-24T12:36:03.556Z,97111.41
2023-08-24T12:38:30.334Z,97102.81
2023-08-24T12:40:57.155Z,97099.06
2023-08-24T12:43:27.740Z,97095.81
2023-08-24T12:45:54.751Z,97086.22
2023-08-24T12:48:21.580Z,97079.59
2023-08-24T12:50:48.409Z,97073.22
2023-08-24T12:53:15.192Z,97065.94
2023-08-24T12:55:42.011Z,97065.94
2023-08-24T12:58:08.783Z,97069.94
2023-08-24T13:00:35.610Z,97075.13
2023-08-24T13:03:02.524Z,97068.56
2023-08-24T13:05:29.367Z,97058.66
2023-08-24T13:07:56.335Z,97060.91
2023-08-24T13:10:23.275Z,97062.06
2023-08-24T13:12:50.071Z,97057.38
2023-08-24T13:15:16.991Z,97049.13
2023-08-24T13:17:43.886Z,97045.38
2023-08-24T13:20:12.098Z,97034.69
2023-08-24T13:22:38.958Z,97030.59
2023-08-24T13:25:06.213Z,97028.34
2023-08-24T13:27:33.015Z,97016.38
2023-08-24T13:30:03.458Z,97017.91
2023-08-24T13:32:30.352Z,97007.47
2023-08-24T13:34:57.495Z,97001.81
2023-08-24T13:37:27.183Z,96991.72
2023-08-24T13:39:53.912Z,96986.88
2023-08-24T13:42:21.036Z,96984.44
2023-08-24T13:44:48.605Z,96979.94
2023-08-24T13:47:15.512Z,96985.94
2023-08-24T13:49:42.446Z,96985.91
2023-08-24T13:52:09.753Z,96975.22
2023-08-24T13:54:36.612Z,96969.59
2023-08-24T13:57:03.542Z,96969.00
2023-08-24T13:59:30.395Z,96958.19
2023-08-24T14:01:57.300Z,96957.81
2023-08-24T14:04:24.459Z,96954.06
2023-08-24T14:06:51.286Z,96959.81
2023-08-24T14:09:18.291Z,96961.19
2023-08-24T14:11:45.197Z,96959.50
2023-08-24T14:14:11.968Z,96956.22
2023-08-24T14:16:38.850Z,96952.78
2023-08-24T14:19:06.118Z,96952.53
2023-08-24T14:24:04.179Z,96943.00
2023-08-24T14:26:31.018Z,96937.38
2023-08-24T14:28:59.511Z,96925.38
2023-08-24T14:31:32.958Z,96924.56
2023-08-24T14:33:59.823Z,96922.19
2023-08-24T14:36:26.604Z,96920.88
2023-08-24T14:38:53.441Z,96923.38
2023-08-24T14:41:20.344Z,96915.22
2023-08-24T14:43:48.456Z,96920.78
2023-08-24T14:46:16.111Z,96922.53
2023-08-24T14:48:42.945Z,96920.78
2023-08-24T14:51:09.757Z,96918.09
2023-08-24T14:53:36.588Z,96919.66
2023-08-24T14:56:03.781Z,96916.22
2023-08-24T14:58:30.627Z,96914.75
2023-08-24T15:00:58.686Z,96911.25
2023-08-24T15:03:26.287Z,96915.84
2023-08-24T15:06:01.705Z,96912.31
2023-08-24T15:08:33.940Z,96907.47
2023-08-24T15:11:01.958Z,96911.81
2023-08-24T15:13:30.810Z,96906.41
2023-08-24T15:15:58.994Z,96907.56
2023-08-24T15:18:27.084Z,96901.66
2023-08-24T15:20:54.039Z,96896.25
2023-08-24T15:23:25.764Z,96893.88
2023-08-24T15:25:55.656Z,96889.75
2023-08-24T15:28:22.889Z,96889.03
2023-08-24T15:30:49.985Z,96900.09
2023-08-24T15:33:17.918Z,96897.22
2023-08-24T15:35:44.729Z,96885.81
2023-08-24T15:38:12.173Z,96891.56
2023-08-24T15:40:39.615Z,96884.28
2023-08-24T15:43:07.524Z,96875.91
2023-08-24T15:45:35.034Z,96880.25
2023-08-24T15:48:02.665Z,96878.38
2023-08-24T15:50:29.863Z,96875.56
2023-08-24T15:52:59.539Z,96873.34
2023-08-24T15:55:31.728Z,96876.56
2023-08-24T15:58:03.318Z,96883.03
2023-08-24T16:00:30.833Z,96881.06
2023-08-24T16:02:58.163Z,96885.31
2023-08-24T16:05:25.216Z,96901.25
2023-08-24T16:07:54.452Z,96897.72
2023-08-24T16:10:21.987Z,96903.38
2023-08-24T16:12:50.401Z,96900.00
2023-08-24T16:15:17.846Z,96893.28
2023-08-24T16:17:44.990Z,96898.34
2023-08-24T16:20:12.827Z,96895.06
2023-08-24T16:22:40.398Z,96887.44
2023-08-24T16:25:08.191Z,96897.94
2023-08-24T16:27:35.771Z,96896.78
2023-08-24T16:30:04.387Z,96893.81
2023-08-24T16:32:31.663Z,96899.72
2023-08-24T16:34:58.582Z,96892.09
2023-08-24T16:37:25.326Z,96895.38
2023-08-24T16:39:52.220Z,96901.03
2023-08-24T16:42:19.505Z,96898.69
2023-08-24T16:44:47.388Z,96904.81
2023-08-24T16:47:14.592Z,96910.56
2023-08-24T16:49:41.431Z,96922.44
2023-08-24T16:52:08.264Z,96910.81
2023-08-24T16:54:35.199Z,96918.34
2023-08-24T16:57:02.037Z,96930.81
2023-08-24T16:59:28.966Z,96928.28
2023-08-24T17:01:55.731Z,96938.75
2023-08-24T17:04:22.948Z,96943.81
2023-08-24T17:06:49.893Z,96957.00
2023-08-24T17:09:16.668Z,96958.06
2023-08-24T17:11:43.518Z,96959.00
2023-08-24T17:14:10.310Z,96961.13
2023-08-24T17:16:37.162Z,96950.56
2023-08-24T17:19:04.257Z,96958.09
2023-08-24T17:21:31.050Z,96975.13
2023-08-24T17:23:58.066Z,96975.94
2023-08-24T17:26:24.912Z,96982.66
2023-08-24T17:28:52.000Z,96972.31
2023-08-24T17:31:18.883Z,96970.66
2023-08-24T17:33:45.733Z,96967.38
2023-08-24T17:36:12.777Z,96971.16
2023-08-24T17:38:39.547Z,96984.66
2023-08-24T17:41:08.071Z,96988.66
2023-08-24T17:43:38.386Z,96991.59
2023-08-24T17:46:05.779Z,96982.31
2023-08-24T17:48:33.152Z,96985.84
2023-08-24T17:51:03.102Z,96986.91
2023-08-24T17:53:31.330Z,96995.25
2023-08-24T17:55:59.817Z,97000.88
2023-08-24T17:58:27.530Z,96995.47
2023-08-24T18:00:57.222Z,96982.19
2023-08-24T18:03:24.427Z,96960.22
2023-08-24T18:05:56.464Z,96961.03
2023-08-24T18:08:24.446Z,96968.91
2023-08-24T18:10:51.411Z,96967.03
2023-08-24T18:13:18.201Z,96953.50
2023-08-24T18:15:45.045Z,96947.75
2023-08-24T18:18:11.855Z,96947.75
2023-08-24T18:20:39.238Z,96945.28
2023-08-24T18:23:06.738Z,96943.06
2023-08-24T18:25:33.535Z,96925.22
2023-08-24T18:28:00.791Z,96915.94
2023-08-24T18:30:27.675Z,96901.84
2023-08-24T18:32:54.660Z,96898.31
2023-08-24T18:35:21.730Z,96891.25
2023-08-24T18:37:48.621Z,96875.28
2023-08-24T18:40:15.548Z,96859.78
2023-08-24T18:42:42.451Z,96848.16
2023-08-24T18:45:10.018Z,96851.94
2023-08-24T18:47:36.961Z,96838.44
2023-08-24T18:50:04.121Z,96829.78
2023-08-24T18:52:30.933Z,96830.81
2023-08-24T18:54:57.889Z,96821.56
2023-08-24T18:57:24.861Z,96798.78
2023-08-24T18:59:53.136Z,96792.31
2023-08-24T19:02:22.005Z,96785.88
2023-08-24T19:04:49.952Z,96792.31
2023-08-24T19:07:16.819Z,96799.84
2023-08-24T19:09:44.633Z,96803.84
2023-08-24T19:12:12.577Z,96812.19
2023-08-24T19:14:39.741Z,96817.00
2023-08-24T19:17:06.572Z,96838.03
2023-08-24T19:19:33.422Z,96841.78
2023-08-24T19:22:00.434Z,96851.75
2023-08-24T19:24:27.290Z,96868.19
2023-08-24T19:26:54.129Z,96872.53
2023-08-24T19:29:21.025Z,96861.38
2023-08-24T19:31:47.943Z,96865.16
2023-08-24T19:34:15.081Z,96859.41
2023-08-24T19:36:41.927Z,96860.66
2023-08-24T19:39:08.884Z,96859.84
2023-08-24T19:41:43.596Z,96850.09
2023-08-24T19:44:17.334Z,96847.03
2023-08-24T19:46:44.386Z,96851.63
2023-08-24T19:49:11.252Z,96851.63
2023-08-24T19:51:39.368Z,96852.91
2023-08-24T19:54:06.332Z,96859.13
2023-08-24T19:56:33.158Z,96846.09
2023-08-24T19:59:00.589Z,96861.47
2023-08-24T20:01:30.419Z,96859.03
2023-08-24T20:03:57.540Z,96881.44
2023-08-24T20:06:26.627Z,96880.84
2023-08-24T20:08:55.450Z,96902.69
2023-08-24T20:11:22.882Z,96912.06
2023-08-24T20:13:50.394Z,96916.06
2023-08-24T20:16:17.632Z,96916.06
2023-08-24T20:18:45.197Z,96929.09
2023-08-24T20:21:12.354Z,96947.97
2023-08-24T20:23:41.497Z,96964.41
2023-08-24T20:26:11.432Z,96976.50
2023-08-24T20:28:41.209Z,96985.41
2023-08-24T20:31:09.205Z,96985.06
2023-08-24T20:33:37.119Z,96980.72
2023-08-24T20:36:05.666Z,96983.63
2023-08-24T20:38:32.764Z,96994.66
2023-08-24T20:41:04.156Z,97014.16
2023-08-24T20:43:31.880Z,97090.78
2023-08-24T20:45:58.973Z,97224.06
2023-08-24T20:48:25.792Z,97261.84
2023-08-24T20:50:59.903Z,97315.84
2023-08-24T20:53:26.782Z,97361.88
2023-08-24T20:55:53.727Z,97370.41
2023-08-24T20:58:20.677Z,97423.84
2023-08-24T21:00:47.510Z,97406.66
2023-08-24T21:03:14.538Z,97384.41
2023-08-24T21:05:41.452Z,97389.19
2023-08-24T21:08:08.279Z,97402.88
2023-08-24T21:10:35.086Z,97373.63
2023-08-24T21:13:03.423Z,97385.03
2023-08-24T21:15:30.270Z,97360.56
2023-08-24T21:17:57.783Z,97348.34
2023-08-24T21:20:24.880Z,97345.66
2023-08-24T21:22:51.803Z,97332.38
2023-08-24T21:25:18.670Z,97331.34
2023-08-24T21:27:45.539Z,97314.59
2023-08-24T21:30:12.927Z,97304.88
2023-08-24T21:32:39.991Z,97302.03
2023-08-24T21:35:07.373Z,97309.00
2023-08-24T21:37:34.506Z,97312.09
2023-08-24T21:40:01.613Z,97304.63
2023-08-24T21:42:29.145Z,97306.31
2023-08-24T21:44:55.961Z,97293.09
2023-08-24T21:47:22.885Z,97274.03
2023-08-24T21:49:50.619Z,97257.41
2023-08-24T21:52:18.326Z,97255.78
2023-08-24T21:54:45.116Z,97247.50
2023-08-24T21:57:12.167Z,97247.91
2023-08-24T21:59:39.087Z,97222.63
2023-08-24T22:02:05.926Z,97214.34
2023-08-24T22:04:32.821Z,97193.25
2023-08-24T22:06:59.651Z,97164.66
2023-08-24T22:09:26.441Z,97164.66
2023-08-24T22:11:53.234Z,97149.09
2023-08-24T22:14:21.461Z,97147.00
2023-08-24T22:16:48.232Z,97135.19
2023-08-24T22:19:26.163Z,97115.28
2023-08-24T22:21:54.377Z,97109.28
2023-08-24T22:24:21.293Z,97098.78
2023-08-24T22:26:48.371Z,97088.03
2023-08-24T22:29:15.267Z,97081.59
2023-08-24T22:31:42.706Z,97072.63
2023-08-24T22:34:09.573Z,97066.78
2023-08-24T22:36:36.405Z,97074.28
2023-08-24T22:39:04.497Z,97071.34
2023-08-24T22:41:31.358Z,97072.19
2023-08-24T22:43:58.152Z,97077.34
2023-08-24T22:46:25.025Z,97080.72
2023-08-24T22:48:52.008Z,97087.19
2023-08-24T22:51:18.812Z,97103.97
2023-08-24T22:53:45.654Z,97106.22
2023-08-24T22:56:14.784Z,97105.84
2023-08-24T22:58:41.800Z,97098.78
2023-08-24T23:01:19.322Z,97104.19
2023-08-24T23:03:46.135Z,97109.56
2023-08-24T23:06:15.020Z,97112.91
2023-08-24T23:08:42.964Z,97096.09
2023-08-24T23:11:10.813Z,97103.34
2023-08-24T23:13:37.673Z,97094.66
2023-08-24T23:16:07.872Z,97097.59
2023-08-24T23:18:37.980Z,97094.91
2023-08-24T23:21:04.787Z,97097.81
2023-08-24T23:23:31.542Z,97087.69
2023-08-24T23:25:58.446Z,97079.00
2023-08-24T23:28:25.570Z,97099.13
2023-08-24T23:30:52.992Z,97086.91
2023-08-24T23:33:19.762Z,97080.50
2023-08-24T23:35:46.528Z,97087.75
2023-08-24T23:38:13.356Z,97078.44
2023-08-24T23:40:40.180Z,97088.63
2023-08-24T23:43:07.013Z,97073.28
2023-08-24T23:45:33.875Z,97071.81
2023-08-24T23:48:00.859Z,97078.25
2023-08-24T23:50:27.698Z,97068.53
2023-08-24T23:52:54.518Z,97071.66
2023-08-24T23:55:21.353Z,97066.28
2023-08-24T23:57:48.176Z,97057.81
